PROFILE

 METAR AND TAF INFORMATION
ADDS - METARS form results

(0857 UTC 20 September 2020)
http://aviationweather.gov/metar/data/
 
FOOL 200830Z 17008KT 8000 SCT010 BKN030 26/24 Q1014 NOSIG
FOOL 200800Z 17007KT 8000 SCT010 BKN030 26/24 Q1014 NOSIG
TAF FOOL 200500Z 2006/2112 22006KT 8000 -RA SCT008 BKN030 BECMG 2008/2010 NSW SCT010 

 AIRPORT MAP

 RUNWAY INFORMATION
Runway 16 Runway length 9844 ft Runway width 148 ft
Runway elevation 29 ft Runway displaced threshold 0 ft Runway heading 154
Runway 34 Runway length 9844 ft Runway width 148 ft
Runway elevation 28 ft Runway displaced threshold 0 ft Runway heading 334

 AIRPORT FREQUENCIES
Type A/G Name A/G VOICE Frequency 655.9 MHZ
Type RDO Name LIBREVILLE Frequency 666.6 MHZ
Type TWR Name TWR Frequency 118.7 MHZ

 AIRPORT NEAR NAVIGATION AIDS
Type VOR-DME Name Libreville Frequency 112100 KHZ